sensor_id;sensor_type;location;lat;lon;timestamp;P1;durP1;ratioP1;P2;durP2;ratioP2
18999;SDS011;9633;50.980;13.850;2023-05-08T00:00:02;8.87;;;7.73;;
18999;SDS011;9633;50.980;13.850;2023-05-08T00:01:36;9.87;;;7.93;;
18999;SDS011;9633;50.980;13.850;2023-05-08T00:03:10;8.70;;;7.87;;
18999;SDS011;9633;50.980;13.850;2023-05-08T00:04:43;9.90;;;8.30;;
18999;SDS011;9633;50.980;13.850;2023-05-08T00:06:16;10.17;;;8.53;;
18999;SDS011;9633;50.980;13.850;2023-05-08T00:07:50;9.60;;;8.60;;
18999;SDS011;9633;50.980;13.850;2023-05-08T00:09:24;9.47;;;8.37;;
18999;SDS011;9633;50.980;13.850;2023-05-08T00:10:57;8.83;;;7.93;;
18999;SDS011;9633;50.980;13.850;2023-05-08T00:12:30;10.03;;;8.77;;
18999;SDS011;9633;50.980;13.850;2023-05-08T00:14:03;10.17;;;8.70;;
18999;SDS011;9633;50.980;13.850;2023-05-08T00:15:36;10.37;;;8.47;;
18999;SDS011;9633;50.980;13.850;2023-05-08T00:17:09;11.57;;;8.90;;
18999;SDS011;9633;50.980;13.850;2023-05-08T00:18:42;9.90;;;8.90;;
18999;SDS011;9633;50.980;13.850;2023-05-08T00:20:16;9.87;;;8.87;;
18999;SDS011;9633;50.980;13.850;2023-05-08T00:21:49;11.93;;;10.33;;
18999;SDS011;9633;50.980;13.850;2023-05-08T00:23:24;10.40;;;9.23;;
18999;SDS011;9633;50.980;13.850;2023-05-08T00:24:57;10.60;;;9.23;;
18999;SDS011;9633;50.980;13.850;2023-05-08T00:26:30;12.17;;;10.70;;
18999;SDS011;9633;50.980;13.850;2023-05-08T00:28:03;12.07;;;10.10;;
18999;SDS011;9633;50.980;13.850;2023-05-08T00:29:36;13.70;;;10.40;;
18999;SDS011;9633;50.980;13.850;2023-05-08T00:31:10;13.83;;;10.20;;
18999;SDS011;9633;50.980;13.850;2023-05-08T00:32:42;10.93;;;9.87;;
18999;SDS011;9633;50.980;13.850;2023-05-08T00:34:15;11.43;;;10.23;;
18999;SDS011;9633;50.980;13.850;2023-05-08T00:35:48;11.97;;;9.87;;
18999;SDS011;9633;50.980;13.850;2023-05-08T00:37:21;10.80;;;9.70;;
18999;SDS011;9633;50.980;13.850;2023-05-08T00:38:54;12.20;;;10.47;;
18999;SDS011;9633;50.980;13.850;2023-05-08T00:40:27;12.13;;;10.60;;
18999;SDS011;9633;50.980;13.850;2023-05-08T00:41:59;10.97;;;9.13;;
18999;SDS011;9633;50.980;13.850;2023-05-08T00:43:32;12.50;;;10.37;;
18999;SDS011;9633;50.980;13.850;2023-05-08T00:45:08;10.63;;;9.27;;
18999;SDS011;9633;50.980;13.850;2023-05-08T00:46:41;11.93;;;10.40;;
18999;SDS011;9633;50.980;13.850;2023-05-08T00:48:16;11.53;;;10.33;;
18999;SDS011;9633;50.980;13.850;2023-05-08T00:49:49;13.73;;;11.03;;
18999;SDS011;9633;50.980;13.850;2023-05-08T00:51:22;12.57;;;9.93;;
18999;SDS011;9633;50.980;13.850;2023-05-08T00:52:55;11.63;;;10.20;;
18999;SDS011;9633;50.980;13.850;2023-05-08T00:54:31;11.57;;;10.40;;
18999;SDS011;9633;50.980;13.850;2023-05-08T00:56:04;12.03;;;10.13;;
18999;SDS011;9633;50.980;13.850;2023-05-08T00:57:38;14.03;;;10.60;;
18999;SDS011;9633;50.980;13.850;2023-05-08T00:59:12;13.97;;;10.33;;
18999;SDS011;9633;50.980;13.850;2023-05-08T01:00:47;13.27;;;10.40;;
18999;SDS011;9633;50.980;13.850;2023-05-08T01:02:24;12.47;;;10.70;;
18999;SDS011;9633;50.980;13.850;2023-05-08T01:03:57;11.90;;;10.70;;
18999;SDS011;9633;50.980;13.850;2023-05-08T01:05:29;12.50;;;11.20;;
18999;SDS011;9633;50.980;13.850;2023-05-08T01:07:03;12.07;;;10.77;;
18999;SDS011;9633;50.980;13.850;2023-05-08T01:08:36;11.97;;;10.67;;
18999;SDS011;9633;50.980;13.850;2023-05-08T01:10:10;14.50;;;11.13;;
18999;SDS011;9633;50.980;13.850;2023-05-08T01:11:46;12.17;;;10.63;;
18999;SDS011;9633;50.980;13.850;2023-05-08T01:13:24;13.43;;;11.33;;
18999;SDS011;9633;50.980;13.850;2023-05-08T01:15:04;14.17;;;11.30;;
18999;SDS011;9633;50.980;13.850;2023-05-08T01:16:43;12.40;;;10.70;;
18999;SDS011;9633;50.980;13.850;2023-05-08T01:18:18;11.97;;;10.67;;
18999;SDS011;9633;50.980;13.850;2023-05-08T01:19:57;11.10;;;9.93;;
18999;SDS011;9633;50.980;13.850;2023-05-08T01:21:41;11.77;;;10.37;;
18999;SDS011;9633;50.980;13.850;2023-05-08T01:23:42;14.60;;;11.20;;
18999;SDS011;9633;50.980;13.850;2023-05-08T01:27:59;13.23;;;11.17;;
18999;SDS011;9633;50.980;13.850;2023-05-08T01:32:14;13.00;;;10.90;;
18999;SDS011;9633;50.980;13.850;2023-05-08T01:33:52;14.57;;;11.23;;
18999;SDS011;9633;50.980;13.850;2023-05-08T01:35:33;13.70;;;11.77;;
18999;SDS011;9633;50.980;13.850;2023-05-08T01:37:13;17.13;;;11.87;;
18999;SDS011;9633;50.980;13.850;2023-05-08T01:38:53;14.70;;;12.00;;
18999;SDS011;9633;50.980;13.850;2023-05-08T01:40:33;15.07;;;12.13;;
18999;SDS011;9633;50.980;13.850;2023-05-08T01:42:12;13.77;;;11.40;;
18999;SDS011;9633;50.980;13.850;2023-05-08T01:43:54;14.77;;;11.07;;
18999;SDS011;9633;50.980;13.850;2023-05-08T01:45:38;13.50;;;11.50;;
18999;SDS011;9633;50.980;13.850;2023-05-08T01:47:17;14.30;;;12.07;;
18999;SDS011;9633;50.980;13.850;2023-05-08T01:48:59;13.43;;;12.00;;
18999;SDS011;9633;50.980;13.850;2023-05-08T01:50:39;13.33;;;11.13;;
18999;SDS011;9633;50.980;13.850;2023-05-08T01:52:17;13.10;;;11.50;;
18999;SDS011;9633;50.980;13.850;2023-05-08T01:53:57;14.00;;;11.77;;
18999;SDS011;9633;50.980;13.850;2023-05-08T01:55:36;15.40;;;12.13;;
18999;SDS011;9633;50.980;13.850;2023-05-08T01:57:11;14.60;;;11.50;;
18999;SDS011;9633;50.980;13.850;2023-05-08T01:58:45;13.13;;;11.63;;
18999;SDS011;9633;50.980;13.850;2023-05-08T02:00:20;14.93;;;12.57;;
18999;SDS011;9633;50.980;13.850;2023-05-08T02:01:55;15.20;;;12.33;;
18999;SDS011;9633;50.980;13.850;2023-05-08T02:03:33;13.90;;;11.93;;
18999;SDS011;9633;50.980;13.850;2023-05-08T02:05:09;15.87;;;13.40;;
18999;SDS011;9633;50.980;13.850;2023-05-08T02:06:43;16.97;;;12.40;;
18999;SDS011;9633;50.980;13.850;2023-05-08T02:08:17;14.87;;;12.83;;
18999;SDS011;9633;50.980;13.850;2023-05-08T02:09:51;16.70;;;12.80;;
18999;SDS011;9633;50.980;13.850;2023-05-08T02:11:27;16.30;;;13.40;;
18999;SDS011;9633;50.980;13.850;2023-05-08T02:13:02;14.07;;;12.57;;
18999;SDS011;9633;50.980;13.850;2023-05-08T02:14:36;18.90;;;12.93;;
18999;SDS011;9633;50.980;13.850;2023-05-08T02:16:11;16.03;;;13.50;;
18999;SDS011;9633;50.980;13.850;2023-05-08T02:17:46;16.10;;;13.00;;
18999;SDS011;9633;50.980;13.850;2023-05-08T02:19:23;16.00;;;13.10;;
18999;SDS011;9633;50.980;13.850;2023-05-08T02:20:58;16.33;;;12.87;;
18999;SDS011;9633;50.980;13.850;2023-05-08T02:22:33;15.90;;;12.50;;
18999;SDS011;9633;50.980;13.850;2023-05-08T02:24:07;15.43;;;12.23;;
18999;SDS011;9633;50.980;13.850;2023-05-08T02:25:41;15.70;;;12.60;;
18999;SDS011;9633;50.980;13.850;2023-05-08T02:27:16;16.33;;;12.83;;
18999;SDS011;9633;50.980;13.850;2023-05-08T02:28:49;15.60;;;13.33;;
18999;SDS011;9633;50.980;13.850;2023-05-08T02:30:24;15.10;;;12.90;;
18999;SDS011;9633;50.980;13.850;2023-05-08T02:31:59;16.07;;;13.27;;
18999;SDS011;9633;50.980;13.850;2023-05-08T02:33:33;15.43;;;12.90;;
18999;SDS011;9633;50.980;13.850;2023-05-08T02:35:08;15.03;;;12.77;;
18999;SDS011;9633;50.980;13.850;2023-05-08T02:36:44;17.63;;;13.97;;
18999;SDS011;9633;50.980;13.850;2023-05-08T02:38:19;16.77;;;13.83;;
18999;SDS011;9633;50.980;13.850;2023-05-08T02:39:54;16.47;;;12.83;;
18999;SDS011;9633;50.980;13.850;2023-05-08T02:41:29;16.37;;;13.23;;
18999;SDS011;9633;50.980;13.850;2023-05-08T02:43:05;16.40;;;13.27;;
18999;SDS011;9633;50.980;13.850;2023-05-08T02:44:38;17.13;;;13.40;;
18999;SDS011;9633;50.980;13.850;2023-05-08T02:46:13;15.63;;;13.10;;
18999;SDS011;9633;50.980;13.850;2023-05-08T02:47:50;16.37;;;12.73;;
18999;SDS011;9633;50.980;13.850;2023-05-08T02:49:32;17.70;;;13.37;;
18999;SDS011;9633;50.980;13.850;2023-05-08T02:51:17;15.47;;;13.30;;
18999;SDS011;9633;50.980;13.850;2023-05-08T02:53:02;17.37;;;14.37;;
18999;SDS011;9633;50.980;13.850;2023-05-08T02:54:39;16.20;;;13.67;;
18999;SDS011;9633;50.980;13.850;2023-05-08T02:56:16;17.37;;;14.10;;
18999;SDS011;9633;50.980;13.850;2023-05-08T02:58:00;17.67;;;14.47;;
18999;SDS011;9633;50.980;13.850;2023-05-08T02:59:39;17.47;;;14.00;;
18999;SDS011;9633;50.980;13.850;2023-05-08T03:01:19;15.47;;;13.10;;
18999;SDS011;9633;50.980;13.850;2023-05-08T03:02:56;16.87;;;13.73;;
18999;SDS011;9633;50.980;13.850;2023-05-08T03:04:33;16.73;;;14.13;;
18999;SDS011;9633;50.980;13.850;2023-05-08T03:06:11;14.90;;;12.97;;
18999;SDS011;9633;50.980;13.850;2023-05-08T03:07:49;15.37;;;12.77;;
18999;SDS011;9633;50.980;13.850;2023-05-08T03:09:27;15.77;;;13.10;;
18999;SDS011;9633;50.980;13.850;2023-05-08T03:11:10;19.27;;;13.87;;
18999;SDS011;9633;50.980;13.850;2023-05-08T03:12:48;16.93;;;13.83;;
18999;SDS011;9633;50.980;13.850;2023-05-08T03:14:24;16.70;;;13.40;;
18999;SDS011;9633;50.980;13.850;2023-05-08T03:16:00;18.00;;;13.83;;
18999;SDS011;9633;50.980;13.850;2023-05-08T03:17:35;17.00;;;13.90;;
18999;SDS011;9633;50.980;13.850;2023-05-08T03:19:13;15.97;;;13.07;;
18999;SDS011;9633;50.980;13.850;2023-05-08T03:20:54;17.97;;;13.33;;
18999;SDS011;9633;50.980;13.850;2023-05-08T03:22:28;14.63;;;12.10;;
18999;SDS011;9633;50.980;13.850;2023-05-08T03:24:05;14.77;;;12.77;;
18999;SDS011;9633;50.980;13.850;2023-05-08T03:25:40;16.50;;;12.93;;
18999;SDS011;9633;50.980;13.850;2023-05-08T03:27:16;15.23;;;13.33;;
18999;SDS011;9633;50.980;13.850;2023-05-08T03:28:51;15.90;;;12.87;;
18999;SDS011;9633;50.980;13.850;2023-05-08T03:30:28;15.13;;;13.37;;
18999;SDS011;9633;50.980;13.850;2023-05-08T03:32:08;15.77;;;13.23;;
18999;SDS011;9633;50.980;13.850;2023-05-08T03:33:43;16.00;;;13.23;;
18999;SDS011;9633;50.980;13.850;2023-05-08T03:35:16;17.17;;;13.27;;
18999;SDS011;9633;50.980;13.850;2023-05-08T03:36:49;16.87;;;13.27;;
18999;SDS011;9633;50.980;13.850;2023-05-08T03:38:23;15.83;;;13.63;;
18999;SDS011;9633;50.980;13.850;2023-05-08T03:39:58;17.50;;;13.00;;
18999;SDS011;9633;50.980;13.850;2023-05-08T03:41:30;16.63;;;13.53;;
18999;SDS011;9633;50.980;13.850;2023-05-08T03:43:04;16.50;;;13.67;;
18999;SDS011;9633;50.980;13.850;2023-05-08T03:44:39;17.83;;;14.00;;
18999;SDS011;9633;50.980;13.850;2023-05-08T03:46:11;16.20;;;13.70;;
18999;SDS011;9633;50.980;13.850;2023-05-08T03:47:45;16.73;;;13.37;;
18999;SDS011;9633;50.980;13.850;2023-05-08T03:49:18;15.87;;;13.27;;
18999;SDS011;9633;50.980;13.850;2023-05-08T03:50:55;17.83;;;14.23;;
18999;SDS011;9633;50.980;13.850;2023-05-08T03:52:30;17.00;;;14.47;;
18999;SDS011;9633;50.980;13.850;2023-05-08T03:54:04;18.27;;;14.60;;
18999;SDS011;9633;50.980;13.850;2023-05-08T03:55:39;16.93;;;13.60;;
18999;SDS011;9633;50.980;13.850;2023-05-08T03:57:13;18.20;;;13.50;;
18999;SDS011;9633;50.980;13.850;2023-05-08T03:58:47;18.50;;;14.93;;
18999;SDS011;9633;50.980;13.850;2023-05-08T04:00:25;18.83;;;14.70;;
18999;SDS011;9633;50.980;13.850;2023-05-08T04:02:11;18.43;;;14.77;;
18999;SDS011;9633;50.980;13.850;2023-05-08T04:03:52;20.33;;;15.23;;
18999;SDS011;9633;50.980;13.850;2023-05-08T04:05:29;17.33;;;14.83;;
18999;SDS011;9633;50.980;13.850;2023-05-08T04:07:09;18.90;;;14.33;;
18999;SDS011;9633;50.980;13.850;2023-05-08T04:09:00;18.60;;;14.53;;
18999;SDS011;9633;50.980;13.850;2023-05-08T04:10:41;17.67;;;13.80;;
18999;SDS011;9633;50.980;13.850;2023-05-08T04:12:17;16.50;;;13.87;;
18999;SDS011;9633;50.980;13.850;2023-05-08T04:13:56;14.33;;;12.63;;
18999;SDS011;9633;50.980;13.850;2023-05-08T04:15:34;14.73;;;12.53;;
18999;SDS011;9633;50.980;13.850;2023-05-08T04:17:10;13.77;;;12.27;;
18999;SDS011;9633;50.980;13.850;2023-05-08T04:18:48;14.07;;;11.93;;
18999;SDS011;9633;50.980;13.850;2023-05-08T04:20:26;14.57;;;12.10;;
18999;SDS011;9633;50.980;13.850;2023-05-08T04:22:02;12.77;;;11.10;;
18999;SDS011;9633;50.980;13.850;2023-05-08T04:23:39;15.00;;;12.13;;
18999;SDS011;9633;50.980;13.850;2023-05-08T04:25:16;14.43;;;11.63;;
18999;SDS011;9633;50.980;13.850;2023-05-08T04:26:53;14.03;;;11.27;;
18999;SDS011;9633;50.980;13.850;2023-05-08T04:28:26;12.97;;;11.07;;
18999;SDS011;9633;50.980;13.850;2023-05-08T04:30:02;13.37;;;11.30;;
18999;SDS011;9633;50.980;13.850;2023-05-08T04:31:37;13.80;;;11.13;;
18999;SDS011;9633;50.980;13.850;2023-05-08T04:33:12;12.23;;;10.50;;
18999;SDS011;9633;50.980;13.850;2023-05-08T04:34:48;11.87;;;10.50;;
18999;SDS011;9633;50.980;13.850;2023-05-08T04:36:22;12.00;;;10.70;;
18999;SDS011;9633;50.980;13.850;2023-05-08T04:37:56;12.80;;;10.80;;
18999;SDS011;9633;50.980;13.850;2023-05-08T04:39:29;11.97;;;10.57;;
18999;SDS011;9633;50.980;13.850;2023-05-08T04:41:02;13.43;;;11.00;;
18999;SDS011;9633;50.980;13.850;2023-05-08T04:42:37;14.43;;;10.63;;
18999;SDS011;9633;50.980;13.850;2023-05-08T04:44:13;13.60;;;9.93;;
18999;SDS011;9633;50.980;13.850;2023-05-08T04:45:46;21.00;;;11.60;;
18999;SDS011;9633;50.980;13.850;2023-05-08T04:47:19;12.33;;;11.00;;
18999;SDS011;9633;50.980;13.850;2023-05-08T04:48:54;11.83;;;10.63;;
18999;SDS011;9633;50.980;13.850;2023-05-08T04:50:28;12.97;;;11.57;;
18999;SDS011;9633;50.980;13.850;2023-05-08T04:52:01;11.83;;;10.40;;
18999;SDS011;9633;50.980;13.850;2023-05-08T04:53:33;12.03;;;10.23;;
18999;SDS011;9633;50.980;13.850;2023-05-08T04:55:07;11.17;;;9.97;;
18999;SDS011;9633;50.980;13.850;2023-05-08T04:56:42;14.07;;;10.20;;
18999;SDS011;9633;50.980;13.850;2023-05-08T04:58:17;11.93;;;10.10;;
18999;SDS011;9633;50.980;13.850;2023-05-08T04:59:50;10.80;;;9.70;;
18999;SDS011;9633;50.980;13.850;2023-05-08T05:01:23;13.00;;;10.27;;
18999;SDS011;9633;50.980;13.850;2023-05-08T05:02:57;11.77;;;10.10;;
18999;SDS011;9633;50.980;13.850;2023-05-08T05:04:30;12.30;;;10.47;;
18999;SDS011;9633;50.980;13.850;2023-05-08T05:06:03;12.70;;;10.53;;
18999;SDS011;9633;50.980;13.850;2023-05-08T05:07:37;11.80;;;9.70;;
18999;SDS011;9633;50.980;13.850;2023-05-08T05:09:10;10.63;;;9.27;;
18999;SDS011;9633;50.980;13.850;2023-05-08T05:10:42;11.80;;;9.37;;
18999;SDS011;9633;50.980;13.850;2023-05-08T05:12:15;11.47;;;9.37;;
18999;SDS011;9633;50.980;13.850;2023-05-08T05:13:50;11.13;;;9.27;;
18999;SDS011;9633;50.980;13.850;2023-05-08T05:15:23;13.13;;;9.30;;
18999;SDS011;9633;50.980;13.850;2023-05-08T05:16:56;9.53;;;8.63;;
18999;SDS011;9633;50.980;13.850;2023-05-08T05:18:30;10.43;;;9.13;;
18999;SDS011;9633;50.980;13.850;2023-05-08T05:20:03;9.83;;;8.83;;
18999;SDS011;9633;50.980;13.850;2023-05-08T05:21:39;10.00;;;9.00;;
18999;SDS011;9633;50.980;13.850;2023-05-08T05:23:12;10.40;;;9.33;;
18999;SDS011;9633;50.980;13.850;2023-05-08T05:24:45;10.50;;;8.80;;
18999;SDS011;9633;50.980;13.850;2023-05-08T05:26:18;9.53;;;8.17;;
18999;SDS011;9633;50.980;13.850;2023-05-08T05:27:52;10.77;;;8.97;;
18999;SDS011;9633;50.980;13.850;2023-05-08T05:29:26;10.07;;;8.33;;
18999;SDS011;9633;50.980;13.850;2023-05-08T05:31:00;11.23;;;8.70;;
18999;SDS011;9633;50.980;13.850;2023-05-08T05:32:34;8.83;;;7.93;;
18999;SDS011;9633;50.980;13.850;2023-05-08T05:34:07;8.63;;;7.83;;
18999;SDS011;9633;50.980;13.850;2023-05-08T05:35:40;9.23;;;8.10;;
18999;SDS011;9633;50.980;13.850;2023-05-08T05:37:12;9.23;;;8.23;;
18999;SDS011;9633;50.980;13.850;2023-05-08T05:38:45;8.93;;;8.03;;
18999;SDS011;9633;50.980;13.850;2023-05-08T05:40:19;8.73;;;7.43;;
18999;SDS011;9633;50.980;13.850;2023-05-08T05:41:52;7.13;;;6.43;;
18999;SDS011;9633;50.980;13.850;2023-05-08T05:43:25;7.93;;;6.13;;
18999;SDS011;9633;50.980;13.850;2023-05-08T05:45:00;6.33;;;5.73;;
18999;SDS011;9633;50.980;13.850;2023-05-08T05:46:35;7.00;;;6.00;;
18999;SDS011;9633;50.980;13.850;2023-05-08T05:48:08;6.23;;;5.63;;
18999;SDS011;9633;50.980;13.850;2023-05-08T05:49:41;5.90;;;5.37;;
18999;SDS011;9633;50.980;13.850;2023-05-08T05:51:17;6.13;;;5.53;;
18999;SDS011;9633;50.980;13.850;2023-05-08T05:52:50;6.17;;;5.30;;
18999;SDS011;9633;50.980;13.850;2023-05-08T05:54:23;5.80;;;5.20;;
18999;SDS011;9633;50.980;13.850;2023-05-08T05:55:57;5.03;;;4.57;;
18999;SDS011;9633;50.980;13.850;2023-05-08T05:57:30;4.97;;;4.47;;
18999;SDS011;9633;50.980;13.850;2023-05-08T05:59:03;5.77;;;4.73;;
18999;SDS011;9633;50.980;13.850;2023-05-08T06:00:38;5.70;;;5.10;;
18999;SDS011;9633;50.980;13.850;2023-05-08T06:02:11;5.43;;;4.10;;
18999;SDS011;9633;50.980;13.850;2023-05-08T06:03:49;6.37;;;4.87;;
18999;SDS011;9633;50.980;13.850;2023-05-08T06:05:22;4.90;;;4.30;;
18999;SDS011;9633;50.980;13.850;2023-05-08T06:06:55;5.20;;;4.70;;
18999;SDS011;9633;50.980;13.850;2023-05-08T06:08:28;4.83;;;4.33;;
18999;SDS011;9633;50.980;13.850;2023-05-08T06:10:01;5.00;;;4.47;;
18999;SDS011;9633;50.980;13.850;2023-05-08T06:11:35;5.13;;;4.13;;
18999;SDS011;9633;50.980;13.850;2023-05-08T06:13:08;5.27;;;4.10;;
18999;SDS011;9633;50.980;13.850;2023-05-08T06:14:42;4.50;;;4.10;;
18999;SDS011;9633;50.980;13.850;2023-05-08T06:16:16;5.43;;;4.60;;
18999;SDS011;9633;50.980;13.850;2023-05-08T06:17:51;4.63;;;4.23;;
18999;SDS011;9633;50.980;13.850;2023-05-08T06:19:27;4.70;;;4.30;;
18999;SDS011;9633;50.980;13.850;2023-05-08T06:21:00;5.00;;;4.60;;
18999;SDS011;9633;50.980;13.850;2023-05-08T06:22:34;4.90;;;4.37;;
18999;SDS011;9633;50.980;13.850;2023-05-08T06:24:08;4.53;;;4.13;;
18999;SDS011;9633;50.980;13.850;2023-05-08T06:25:42;4.40;;;4.00;;
18999;SDS011;9633;50.980;13.850;2023-05-08T06:27:15;4.80;;;4.17;;
18999;SDS011;9633;50.980;13.850;2023-05-08T06:28:48;4.63;;;3.97;;
18999;SDS011;9633;50.980;13.850;2023-05-08T06:30:21;5.00;;;3.87;;
18999;SDS011;9633;50.980;13.850;2023-05-08T06:31:56;3.97;;;3.67;;
18999;SDS011;9633;50.980;13.850;2023-05-08T06:33:29;5.83;;;3.93;;
18999;SDS011;9633;50.980;13.850;2023-05-08T06:35:02;4.10;;;3.70;;
18999;SDS011;9633;50.980;13.850;2023-05-08T06:36:36;4.10;;;3.67;;
18999;SDS011;9633;50.980;13.850;2023-05-08T06:38:09;4.43;;;4.00;;
18999;SDS011;9633;50.980;13.850;2023-05-08T06:39:42;4.97;;;3.80;;
18999;SDS011;9633;50.980;13.850;2023-05-08T06:41:15;4.40;;;4.00;;
18999;SDS011;9633;50.980;13.850;2023-05-08T06:42:49;4.07;;;3.67;;
18999;SDS011;9633;50.980;13.850;2023-05-08T06:44:22;4.30;;;3.47;;
18999;SDS011;9633;50.980;13.850;2023-05-08T06:45:55;3.90;;;3.50;;
18999;SDS011;9633;50.980;13.850;2023-05-08T06:47:29;4.10;;;3.70;;
18999;SDS011;9633;50.980;13.850;2023-05-08T06:49:03;4.30;;;3.63;;
18999;SDS011;9633;50.980;13.850;2023-05-08T06:50:36;3.80;;;3.50;;
18999;SDS011;9633;50.980;13.850;2023-05-08T06:52:09;3.57;;;3.27;;
18999;SDS011;9633;50.980;13.850;2023-05-08T06:53:43;3.53;;;3.23;;
18999;SDS011;9633;50.980;13.850;2023-05-08T06:55:16;4.87;;;3.80;;
18999;SDS011;9633;50.980;13.850;2023-05-08T06:56:49;3.40;;;3.20;;
18999;SDS011;9633;50.980;13.850;2023-05-08T06:58:24;3.90;;;3.47;;
18999;SDS011;9633;50.980;13.850;2023-05-08T06:59:57;3.40;;;3.10;;
18999;SDS011;9633;50.980;13.850;2023-05-08T07:01:31;5.80;;;3.50;;
18999;SDS011;9633;50.980;13.850;2023-05-08T07:03:05;3.40;;;3.20;;
18999;SDS011;9633;50.980;13.850;2023-05-08T07:04:38;4.40;;;3.30;;
18999;SDS011;9633;50.980;13.850;2023-05-08T07:06:12;4.37;;;3.10;;
18999;SDS011;9633;50.980;13.850;2023-05-08T07:07:45;3.53;;;3.07;;
18999;SDS011;9633;50.980;13.850;2023-05-08T07:09:18;3.60;;;3.30;;
18999;SDS011;9633;50.980;13.850;2023-05-08T07:10:51;3.67;;;3.17;;
18999;SDS011;9633;50.980;13.850;2023-05-08T07:12:25;2.90;;;2.70;;
18999;SDS011;9633;50.980;13.850;2023-05-08T07:13:58;3.50;;;2.73;;
18999;SDS011;9633;50.980;13.850;2023-05-08T07:15:32;3.27;;;2.70;;
18999;SDS011;9633;50.980;13.850;2023-05-08T07:17:05;3.40;;;3.00;;
18999;SDS011;9633;50.980;13.850;2023-05-08T07:18:40;3.00;;;2.70;;
18999;SDS011;9633;50.980;13.850;2023-05-08T07:20:15;3.00;;;2.70;;
18999;SDS011;9633;50.980;13.850;2023-05-08T07:21:48;2.97;;;2.67;;
18999;SDS011;9633;50.980;13.850;2023-05-08T07:23:21;2.40;;;2.20;;
18999;SDS011;9633;50.980;13.850;2023-05-08T07:24:54;2.83;;;2.30;;
18999;SDS011;9633;50.980;13.850;2023-05-08T07:26:28;2.63;;;2.43;;
18999;SDS011;9633;50.980;13.850;2023-05-08T07:28:01;3.13;;;2.60;;
18999;SDS011;9633;50.980;13.850;2023-05-08T07:29:34;3.10;;;2.80;;
18999;SDS011;9633;50.980;13.850;2023-05-08T07:31:07;2.80;;;2.60;;
18999;SDS011;9633;50.980;13.850;2023-05-08T07:32:41;3.00;;;2.67;;
18999;SDS011;9633;50.980;13.850;2023-05-08T07:34:15;2.67;;;2.47;;
18999;SDS011;9633;50.980;13.850;2023-05-08T07:35:48;2.50;;;2.30;;
18999;SDS011;9633;50.980;13.850;2023-05-08T07:37:21;2.90;;;2.30;;
18999;SDS011;9633;50.980;13.850;2023-05-08T07:38:54;2.83;;;2.40;;
18999;SDS011;9633;50.980;13.850;2023-05-08T07:40:27;2.50;;;2.30;;
18999;SDS011;9633;50.980;13.850;2023-05-08T07:42:01;2.37;;;2.17;;
18999;SDS011;9633;50.980;13.850;2023-05-08T07:43:34;2.27;;;2.07;;
18999;SDS011;9633;50.980;13.850;2023-05-08T07:45:07;2.83;;;2.50;;
18999;SDS011;9633;50.980;13.850;2023-05-08T07:46:42;4.33;;;2.60;;
18999;SDS011;9633;50.980;13.850;2023-05-08T07:48:15;2.57;;;2.37;;
18999;SDS011;9633;50.980;13.850;2023-05-08T07:49:50;2.67;;;2.47;;
18999;SDS011;9633;50.980;13.850;2023-05-08T07:51:24;2.70;;;2.50;;
18999;SDS011;9633;50.980;13.850;2023-05-08T07:52:58;2.63;;;2.40;;
18999;SDS011;9633;50.980;13.850;2023-05-08T07:54:31;4.10;;;2.37;;
18999;SDS011;9633;50.980;13.850;2023-05-08T07:56:04;2.80;;;2.40;;
18999;SDS011;9633;50.980;13.850;2023-05-08T07:57:38;2.10;;;2.00;;
18999;SDS011;9633;50.980;13.850;2023-05-08T07:59:12;2.83;;;2.40;;
18999;SDS011;9633;50.980;13.850;2023-05-08T08:00:45;2.37;;;2.17;;
18999;SDS011;9633;50.980;13.850;2023-05-08T08:02:18;4.17;;;2.47;;
18999;SDS011;9633;50.980;13.850;2023-05-08T08:03:51;2.40;;;2.20;;
18999;SDS011;9633;50.980;13.850;2023-05-08T08:05:26;3.73;;;2.53;;
18999;SDS011;9633;50.980;13.850;2023-05-08T08:06:59;1.97;;;1.80;;
18999;SDS011;9633;50.980;13.850;2023-05-08T08:08:33;2.63;;;2.20;;
18999;SDS011;9633;50.980;13.850;2023-05-08T08:10:06;2.27;;;2.07;;
18999;SDS011;9633;50.980;13.850;2023-05-08T08:11:40;2.00;;;1.83;;
18999;SDS011;9633;50.980;13.850;2023-05-08T08:13:13;2.50;;;2.23;;
18999;SDS011;9633;50.980;13.850;2023-05-08T08:14:46;3.30;;;2.30;;
18999;SDS011;9633;50.980;13.850;2023-05-08T08:16:19;2.40;;;2.20;;
18999;SDS011;9633;50.980;13.850;2023-05-08T08:17:52;2.70;;;2.10;;
18999;SDS011;9633;50.980;13.850;2023-05-08T08:19:26;2.43;;;2.00;;
18999;SDS011;9633;50.980;13.850;2023-05-08T08:21:00;2.47;;;2.27;;
18999;SDS011;9633;50.980;13.850;2023-05-08T08:22:36;2.47;;;2.27;;
18999;SDS011;9633;50.980;13.850;2023-05-08T08:24:10;2.43;;;2.23;;
18999;SDS011;9633;50.980;13.850;2023-05-08T08:25:43;2.53;;;2.17;;
18999;SDS011;9633;50.980;13.850;2023-05-08T08:27:17;2.30;;;2.10;;
18999;SDS011;9633;50.980;13.850;2023-05-08T08:28:50;1.97;;;1.83;;
18999;SDS011;9633;50.980;13.850;2023-05-08T08:30:23;2.10;;;1.90;;
18999;SDS011;9633;50.980;13.850;2023-05-08T08:31:56;2.37;;;2.00;;
18999;SDS011;9633;50.980;13.850;2023-05-08T08:33:29;2.23;;;1.90;;
18999;SDS011;9633;50.980;13.850;2023-05-08T08:35:03;2.90;;;2.00;;
18999;SDS011;9633;50.980;13.850;2023-05-08T08:36:38;2.07;;;1.90;;
18999;SDS011;9633;50.980;13.850;2023-05-08T08:38:11;1.93;;;1.80;;
18999;SDS011;9633;50.980;13.850;2023-05-08T08:39:44;1.67;;;1.57;;
18999;SDS011;9633;50.980;13.850;2023-05-08T08:41:18;2.60;;;2.03;;
18999;SDS011;9633;50.980;13.850;2023-05-08T08:42:52;2.83;;;1.70;;
18999;SDS011;9633;50.980;13.850;2023-05-08T08:44:26;2.00;;;1.80;;
18999;SDS011;9633;50.980;13.850;2023-05-08T08:46:00;3.13;;;2.00;;
18999;SDS011;9633;50.980;13.850;2023-05-08T08:47:35;1.80;;;1.70;;
18999;SDS011;9633;50.980;13.850;2023-05-08T08:49:08;2.03;;;1.70;;
18999;SDS011;9633;50.980;13.850;2023-05-08T08:50:49;2.13;;;1.70;;
18999;SDS011;9633;50.980;13.850;2023-05-08T08:52:34;1.90;;;1.70;;
18999;SDS011;9633;50.980;13.850;2023-05-08T08:54:13;1.93;;;1.70;;
18999;SDS011;9633;50.980;13.850;2023-05-08T08:55:49;1.70;;;1.60;;
18999;SDS011;9633;50.980;13.850;2023-05-08T08:57:26;5.60;;;1.80;;
18999;SDS011;9633;50.980;13.850;2023-05-08T08:59:00;2.07;;;1.53;;
18999;SDS011;9633;50.980;13.850;2023-05-08T09:00:34;1.70;;;1.60;;
18999;SDS011;9633;50.980;13.850;2023-05-08T09:02:09;2.33;;;1.80;;
18999;SDS011;9633;50.980;13.850;2023-05-08T09:03:48;1.73;;;1.53;;
18999;SDS011;9633;50.980;13.850;2023-05-08T09:05:21;1.60;;;1.50;;
18999;SDS011;9633;50.980;13.850;2023-05-08T09:06:56;1.50;;;1.40;;
18999;SDS011;9633;50.980;13.850;2023-05-08T09:08:31;1.97;;;1.80;;
18999;SDS011;9633;50.980;13.850;2023-05-08T09:10:06;1.90;;;1.50;;
18999;SDS011;9633;50.980;13.850;2023-05-08T09:11:45;1.83;;;1.67;;
18999;SDS011;9633;50.980;13.850;2023-05-08T09:13:19;2.40;;;1.80;;
18999;SDS011;9633;50.980;13.850;2023-05-08T09:14:52;2.87;;;1.70;;
18999;SDS011;9633;50.980;13.850;2023-05-08T09:16:26;1.60;;;1.50;;
18999;SDS011;9633;50.980;13.850;2023-05-08T09:18:00;1.83;;;1.53;;
18999;SDS011;9633;50.980;13.850;2023-05-08T09:19:33;2.17;;;1.70;;
18999;SDS011;9633;50.980;13.850;2023-05-08T09:21:07;1.87;;;1.63;;
18999;SDS011;9633;50.980;13.850;2023-05-08T09:22:41;2.10;;;1.90;;
18999;SDS011;9633;50.980;13.850;2023-05-08T09:24:16;1.77;;;1.40;;
18999;SDS011;9633;50.980;13.850;2023-05-08T09:25:49;1.77;;;1.50;;
18999;SDS011;9633;50.980;13.850;2023-05-08T09:27:23;1.67;;;1.57;;